Terminal Aerodrome Forecast
Issued by NWS Wichita, KS

Home | Current Version | Previous Version | Graphics & Text | Print | Product List | Glossary On
Versions: 1 2 3 4 5 6 7 8 9 10 11 12 13 14 15 16 17 18 19 20 21 22
890
FTUS43 KICT 141722
TAFICT
TAF
KICT 141722Z 1418/1518 18009KT P6SM SCT022
      TEMPO 1418/1421 BKN022
     FM150000 16007KT P6SM SKC
     FM150900 15006KT 6SM BR FEW012
     FM151200 15004KT 3SM BR BKN008
     FM151500 15007KT P6SM BKN015
     FM151700 16009KT P6SM SCT022=

USA.gov is the U.S. government's official web portal to all federal, state and local government web resources and services.